sensor_id;sensor_type;location;lat;lon;timestamp;temperature;humidity
20712;DHT22;10517;50.742;4.224;2023-06-14T00:01:35;19.20;99.90
20712;DHT22;10517;50.742;4.224;2023-06-14T00:04:01;19.10;99.70
20712;DHT22;10517;50.742;4.224;2023-06-14T00:06:28;19.10;99.90
20712;DHT22;10517;50.742;4.224;2023-06-14T00:08:54;19.10;99.40
20712;DHT22;10517;50.742;4.224;2023-06-14T00:11:20;19.10;99.90
20712;DHT22;10517;50.742;4.224;2023-06-14T00:13:46;19.00;99.90
20712;DHT22;10517;50.742;4.224;2023-06-14T00:16:12;19.00;99.90
20712;DHT22;10517;50.742;4.224;2023-06-14T00:18:38;18.90;99.90
20712;DHT22;10517;50.742;4.224;2023-06-14T00:21:04;18.70;99.90
20712;DHT22;10517;50.742;4.224;2023-06-14T00:23:30;18.70;99.90
20712;DHT22;10517;50.742;4.224;2023-06-14T00:25:55;18.70;99.90
20712;DHT22;10517;50.742;4.224;2023-06-14T00:28:21;18.70;99.90
20712;DHT22;10517;50.742;4.224;2023-06-14T00:30:47;18.70;99.90
20712;DHT22;10517;50.742;4.224;2023-06-14T00:33:12;18.60;99.90
20712;DHT22;10517;50.742;4.224;2023-06-14T00:35:38;18.60;99.90
20712;DHT22;10517;50.742;4.224;2023-06-14T00:38:04;18.70;99.90
20712;DHT22;10517;50.742;4.224;2023-06-14T00:40:29;18.60;99.90
20712;DHT22;10517;50.742;4.224;2023-06-14T00:42:55;18.60;99.90
20712;DHT22;10517;50.742;4.224;2023-06-14T00:45:21;18.60;99.90
20712;DHT22;10517;50.742;4.224;2023-06-14T00:47:47;18.60;99.90
20712;DHT22;10517;50.742;4.224;2023-06-14T00:50:13;18.60;99.90
20712;DHT22;10517;50.742;4.224;2023-06-14T00:52:39;18.50;99.90
20712;DHT22;10517;50.742;4.224;2023-06-14T00:55:05;18.50;99.90
20712;DHT22;10517;50.742;4.224;2023-06-14T00:57:31;18.40;99.90
20712;DHT22;10517;50.742;4.224;2023-06-14T00:59:57;18.40;99.90
20712;DHT22;10517;50.742;4.224;2023-06-14T01:02:23;18.30;99.90
20712;DHT22;10517;50.742;4.224;2023-06-14T01:04:51;18.40;99.90
20712;DHT22;10517;50.742;4.224;2023-06-14T01:12:55;18.30;99.90
20712;DHT22;10517;50.742;4.224;2023-06-14T01:15:23;18.40;99.90
20712;DHT22;10517;50.742;4.224;2023-06-14T01:17:50;18.30;99.90
20712;DHT22;10517;50.742;4.224;2023-06-14T01:20:17;18.30;99.90
20712;DHT22;10517;50.742;4.224;2023-06-14T01:22:52;18.30;99.90
20712;DHT22;10517;50.742;4.224;2023-06-14T01:25:22;18.30;99.90
20712;DHT22;10517;50.742;4.224;2023-06-14T01:27:59;18.30;99.90
20712;DHT22;10517;50.742;4.224;2023-06-14T01:30:26;18.30;99.90
20712;DHT22;10517;50.742;4.224;2023-06-14T01:32:53;18.40;99.90
20712;DHT22;10517;50.742;4.224;2023-06-14T01:35:20;18.30;99.90
20712;DHT22;10517;50.742;4.224;2023-06-14T01:37:47;18.30;99.90
20712;DHT22;10517;50.742;4.224;2023-06-14T01:40:15;18.20;99.90
20712;DHT22;10517;50.742;4.224;2023-06-14T01:42:42;18.10;99.90
20712;DHT22;10517;50.742;4.224;2023-06-14T01:45:09;18.10;99.90
20712;DHT22;10517;50.742;4.224;2023-06-14T01:47:36;18.10;99.90
20712;DHT22;10517;50.742;4.224;2023-06-14T01:50:05;18.20;99.90
20712;DHT22;10517;50.742;4.224;2023-06-14T01:52:30;18.30;99.90
20712;DHT22;10517;50.742;4.224;2023-06-14T01:54:56;18.30;99.90
20712;DHT22;10517;50.742;4.224;2023-06-14T01:57:24;18.30;99.90
20712;DHT22;10517;50.742;4.224;2023-06-14T01:59:50;18.30;99.90
20712;DHT22;10517;50.742;4.224;2023-06-14T02:02:16;18.20;99.90
20712;DHT22;10517;50.742;4.224;2023-06-14T02:04:42;18.10;99.90
20712;DHT22;10517;50.742;4.224;2023-06-14T02:07:07;18.00;99.90
20712;DHT22;10517;50.742;4.224;2023-06-14T02:09:34;17.90;99.90
20712;DHT22;10517;50.742;4.224;2023-06-14T02:12:00;17.80;99.90
20712;DHT22;10517;50.742;4.224;2023-06-14T02:14:26;17.60;99.90
20712;DHT22;10517;50.742;4.224;2023-06-14T02:16:52;17.60;99.90
20712;DHT22;10517;50.742;4.224;2023-06-14T02:19:19;17.50;99.90
20712;DHT22;10517;50.742;4.224;2023-06-14T02:21:45;17.50;99.90
20712;DHT22;10517;50.742;4.224;2023-06-14T02:24:11;17.50;99.90
20712;DHT22;10517;50.742;4.224;2023-06-14T02:26:37;17.50;99.90
20712;DHT22;10517;50.742;4.224;2023-06-14T02:29:04;17.40;99.90
20712;DHT22;10517;50.742;4.224;2023-06-14T02:31:35;17.40;99.90
20712;DHT22;10517;50.742;4.224;2023-06-14T02:34:00;17.40;99.90
20712;DHT22;10517;50.742;4.224;2023-06-14T02:36:26;17.40;99.90
20712;DHT22;10517;50.742;4.224;2023-06-14T02:38:51;17.30;99.90
20712;DHT22;10517;50.742;4.224;2023-06-14T02:41:19;17.30;99.90
20712;DHT22;10517;50.742;4.224;2023-06-14T02:43:45;17.20;99.90
20712;DHT22;10517;50.742;4.224;2023-06-14T02:46:10;17.10;99.90
20712;DHT22;10517;50.742;4.224;2023-06-14T02:48:36;17.10;99.90
20712;DHT22;10517;50.742;4.224;2023-06-14T02:51:02;17.10;99.90
20712;DHT22;10517;50.742;4.224;2023-06-14T02:53:28;16.90;99.90
20712;DHT22;10517;50.742;4.224;2023-06-14T02:55:53;16.80;99.90
20712;DHT22;10517;50.742;4.224;2023-06-14T02:58:21;16.90;99.90
20712;DHT22;10517;50.742;4.224;2023-06-14T03:00:46;16.80;99.90
20712;DHT22;10517;50.742;4.224;2023-06-14T03:03:12;16.70;99.90
20712;DHT22;10517;50.742;4.224;2023-06-14T03:05:46;16.70;99.90
20712;DHT22;10517;50.742;4.224;2023-06-14T03:08:13;16.60;99.90
20712;DHT22;10517;50.742;4.224;2023-06-14T03:10:47;16.60;99.90
20712;DHT22;10517;50.742;4.224;2023-06-14T03:13:14;16.50;99.90
20712;DHT22;10517;50.742;4.224;2023-06-14T03:15:41;16.50;99.90
20712;DHT22;10517;50.742;4.224;2023-06-14T03:18:09;16.50;99.90
20712;DHT22;10517;50.742;4.224;2023-06-14T03:20:35;16.40;99.90
20712;DHT22;10517;50.742;4.224;2023-06-14T03:23:05;16.40;99.90
20712;DHT22;10517;50.742;4.224;2023-06-14T03:25:32;16.40;99.90
20712;DHT22;10517;50.742;4.224;2023-06-14T03:28:01;16.30;99.90
20712;DHT22;10517;50.742;4.224;2023-06-14T03:30:26;16.30;99.90
20712;DHT22;10517;50.742;4.224;2023-06-14T03:32:52;16.30;99.90
20712;DHT22;10517;50.742;4.224;2023-06-14T03:35:19;16.20;99.90
20712;DHT22;10517;50.742;4.224;2023-06-14T03:37:45;16.20;99.90
20712;DHT22;10517;50.742;4.224;2023-06-14T03:40:11;16.10;99.90
20712;DHT22;10517;50.742;4.224;2023-06-14T03:42:37;16.10;99.90
20712;DHT22;10517;50.742;4.224;2023-06-14T03:45:04;16.10;99.90
20712;DHT22;10517;50.742;4.224;2023-06-14T03:47:30;16.10;99.90
20712;DHT22;10517;50.742;4.224;2023-06-14T03:49:56;16.10;99.90
20712;DHT22;10517;50.742;4.224;2023-06-14T03:52:21;16.10;99.90
20712;DHT22;10517;50.742;4.224;2023-06-14T03:54:48;16.10;99.90
20712;DHT22;10517;50.742;4.224;2023-06-14T03:57:15;16.00;99.90
20712;DHT22;10517;50.742;4.224;2023-06-14T03:59:40;16.00;99.90
20712;DHT22;10517;50.742;4.224;2023-06-14T04:02:07;16.00;99.90
20712;DHT22;10517;50.742;4.224;2023-06-14T04:04:32;16.00;99.90
20712;DHT22;10517;50.742;4.224;2023-06-14T04:06:58;16.00;99.90
20712;DHT22;10517;50.742;4.224;2023-06-14T04:09:26;16.10;99.90
20712;DHT22;10517;50.742;4.224;2023-06-14T04:11:54;16.10;99.90
20712;DHT22;10517;50.742;4.224;2023-06-14T04:14:20;16.10;99.90
20712;DHT22;10517;50.742;4.224;2023-06-14T04:16:47;16.20;99.90
20712;DHT22;10517;50.742;4.224;2023-06-14T04:19:13;16.20;99.90
20712;DHT22;10517;50.742;4.224;2023-06-14T04:21:39;16.20;99.90
20712;DHT22;10517;50.742;4.224;2023-06-14T04:24:05;16.30;99.90
20712;DHT22;10517;50.742;4.224;2023-06-14T04:26:30;16.30;99.90
20712;DHT22;10517;50.742;4.224;2023-06-14T04:28:59;16.40;99.90
20712;DHT22;10517;50.742;4.224;2023-06-14T04:31:28;16.40;99.90
20712;DHT22;10517;50.742;4.224;2023-06-14T04:33:55;16.50;99.90
20712;DHT22;10517;50.742;4.224;2023-06-14T04:36:21;16.50;99.90
20712;DHT22;10517;50.742;4.224;2023-06-14T04:38:47;16.70;99.90
20712;DHT22;10517;50.742;4.224;2023-06-14T04:41:14;16.70;99.90
20712;DHT22;10517;50.742;4.224;2023-06-14T04:43:41;16.90;99.90
20712;DHT22;10517;50.742;4.224;2023-06-14T04:46:08;17.00;99.90
20712;DHT22;10517;50.742;4.224;2023-06-14T04:48:40;17.20;99.90
20712;DHT22;10517;50.742;4.224;2023-06-14T04:51:08;17.30;99.90
20712;DHT22;10517;50.742;4.224;2023-06-14T04:53:35;17.50;99.90
20712;DHT22;10517;50.742;4.224;2023-06-14T04:56:01;17.60;99.90
20712;DHT22;10517;50.742;4.224;2023-06-14T04:58:27;17.60;99.90
20712;DHT22;10517;50.742;4.224;2023-06-14T05:00:54;17.70;99.90
20712;DHT22;10517;50.742;4.224;2023-06-14T05:03:22;17.80;99.90
20712;DHT22;10517;50.742;4.224;2023-06-14T05:05:49;17.80;99.90
20712;DHT22;10517;50.742;4.224;2023-06-14T05:08:16;18.00;99.90
20712;DHT22;10517;50.742;4.224;2023-06-14T05:10:41;18.10;99.90
20712;DHT22;10517;50.742;4.224;2023-06-14T05:13:07;18.20;99.90
20712;DHT22;10517;50.742;4.224;2023-06-14T05:15:33;18.20;99.90
20712;DHT22;10517;50.742;4.224;2023-06-14T05:17:59;18.30;99.90
20712;DHT22;10517;50.742;4.224;2023-06-14T05:20:25;18.30;99.90
20712;DHT22;10517;50.742;4.224;2023-06-14T05:22:52;18.40;99.90
20712;DHT22;10517;50.742;4.224;2023-06-14T05:25:19;18.50;99.90
20712;DHT22;10517;50.742;4.224;2023-06-14T05:27:46;18.60;99.90
20712;DHT22;10517;50.742;4.224;2023-06-14T05:30:12;18.60;99.90
20712;DHT22;10517;50.742;4.224;2023-06-14T05:32:38;18.60;99.90
20712;DHT22;10517;50.742;4.224;2023-06-14T05:35:04;18.70;99.90
20712;DHT22;10517;50.742;4.224;2023-06-14T05:37:29;18.80;99.90
20712;DHT22;10517;50.742;4.224;2023-06-14T05:39:56;18.90;99.90
20712;DHT22;10517;50.742;4.224;2023-06-14T05:42:22;19.00;99.90
20712;DHT22;10517;50.742;4.224;2023-06-14T05:44:47;19.00;99.90
20712;DHT22;10517;50.742;4.224;2023-06-14T05:47:13;19.00;99.90
20712;DHT22;10517;50.742;4.224;2023-06-14T05:49:38;19.20;99.90
20712;DHT22;10517;50.742;4.224;2023-06-14T05:52:04;19.30;99.90
20712;DHT22;10517;50.742;4.224;2023-06-14T05:54:30;19.20;99.90
20712;DHT22;10517;50.742;4.224;2023-06-14T05:56:56;19.40;99.90
20712;DHT22;10517;50.742;4.224;2023-06-14T05:59:26;19.50;99.90
20712;DHT22;10517;50.742;4.224;2023-06-14T06:01:52;19.50;99.90
20712;DHT22;10517;50.742;4.224;2023-06-14T06:04:18;19.60;99.90
20712;DHT22;10517;50.742;4.224;2023-06-14T06:06:44;19.70;99.90
20712;DHT22;10517;50.742;4.224;2023-06-14T06:09:10;19.60;99.90
20712;DHT22;10517;50.742;4.224;2023-06-14T06:11:36;19.80;99.90
20712;DHT22;10517;50.742;4.224;2023-06-14T06:14:01;19.90;99.90
20712;DHT22;10517;50.742;4.224;2023-06-14T06:16:27;19.90;99.90
20712;DHT22;10517;50.742;4.224;2023-06-14T06:18:52;20.00;99.90
20712;DHT22;10517;50.742;4.224;2023-06-14T06:21:18;20.10;99.90
20712;DHT22;10517;50.742;4.224;2023-06-14T06:23:44;20.20;99.90
20712;DHT22;10517;50.742;4.224;2023-06-14T06:26:09;20.30;99.90
20712;DHT22;10517;50.742;4.224;2023-06-14T06:28:35;20.30;99.90
20712;DHT22;10517;50.742;4.224;2023-06-14T06:31:01;20.40;99.90
20712;DHT22;10517;50.742;4.224;2023-06-14T06:33:26;20.50;99.90
20712;DHT22;10517;50.742;4.224;2023-06-14T06:35:52;20.60;99.90
20712;DHT22;10517;50.742;4.224;2023-06-14T06:38:17;20.60;99.90
20712;DHT22;10517;50.742;4.224;2023-06-14T06:40:44;20.70;99.90
20712;DHT22;10517;50.742;4.224;2023-06-14T06:43:10;20.90;99.90
20712;DHT22;10517;50.742;4.224;2023-06-14T06:45:39;20.90;99.90
20712;DHT22;10517;50.742;4.224;2023-06-14T06:48:05;21.00;99.90
20712;DHT22;10517;50.742;4.224;2023-06-14T06:50:30;21.10;99.90
20712;DHT22;10517;50.742;4.224;2023-06-14T06:52:56;21.10;99.90
20712;DHT22;10517;50.742;4.224;2023-06-14T06:55:22;21.30;99.90
20712;DHT22;10517;50.742;4.224;2023-06-14T06:57:48;21.40;99.90
20712;DHT22;10517;50.742;4.224;2023-06-14T07:00:15;21.50;99.90
20712;DHT22;10517;50.742;4.224;2023-06-14T07:02:41;21.50;99.90
20712;DHT22;10517;50.742;4.224;2023-06-14T07:05:07;21.50;99.90
20712;DHT22;10517;50.742;4.224;2023-06-14T07:07:34;21.60;99.90
20712;DHT22;10517;50.742;4.224;2023-06-14T07:09:59;21.70;99.90
20712;DHT22;10517;50.742;4.224;2023-06-14T07:12:26;21.90;99.90
20712;DHT22;10517;50.742;4.224;2023-06-14T07:14:51;21.90;99.90
20712;DHT22;10517;50.742;4.224;2023-06-14T07:17:17;22.10;99.90
20712;DHT22;10517;50.742;4.224;2023-06-14T07:19:43;22.10;99.90
20712;DHT22;10517;50.742;4.224;2023-06-14T07:22:08;22.20;99.90
20712;DHT22;10517;50.742;4.224;2023-06-14T07:24:34;22.30;99.90
20712;DHT22;10517;50.742;4.224;2023-06-14T07:27:02;22.20;99.50
20712;DHT22;10517;50.742;4.224;2023-06-14T07:29:28;22.10;98.80
20712;DHT22;10517;50.742;4.224;2023-06-14T07:31:54;22.10;99.90
20712;DHT22;10517;50.742;4.224;2023-06-14T07:34:19;22.10;99.20
20712;DHT22;10517;50.742;4.224;2023-06-14T07:36:45;22.20;99.30
20712;DHT22;10517;50.742;4.224;2023-06-14T07:39:11;22.30;99.50
20712;DHT22;10517;50.742;4.224;2023-06-14T07:41:37;22.40;99.60
20712;DHT22;10517;50.742;4.224;2023-06-14T07:44:03;22.60;99.90
20712;DHT22;10517;50.742;4.224;2023-06-14T07:46:28;22.80;99.20
20712;DHT22;10517;50.742;4.224;2023-06-14T07:48:54;22.80;99.00
20712;DHT22;10517;50.742;4.224;2023-06-14T07:51:19;22.90;99.00
20712;DHT22;10517;50.742;4.224;2023-06-14T07:53:47;23.00;99.90
20712;DHT22;10517;50.742;4.224;2023-06-14T07:56:13;23.20;99.90
20712;DHT22;10517;50.742;4.224;2023-06-14T07:58:38;23.30;99.90
20712;DHT22;10517;50.742;4.224;2023-06-14T08:01:04;23.40;99.50
20712;DHT22;10517;50.742;4.224;2023-06-14T08:03:32;23.40;98.60
20712;DHT22;10517;50.742;4.224;2023-06-14T08:05:57;23.40;98.60
20712;DHT22;10517;50.742;4.224;2023-06-14T08:08:23;23.40;98.60
20712;DHT22;10517;50.742;4.224;2023-06-14T08:10:49;23.50;96.70
20712;DHT22;10517;50.742;4.224;2023-06-14T08:13:14;23.60;96.40
20712;DHT22;10517;50.742;4.224;2023-06-14T08:15:40;23.70;98.50
20712;DHT22;10517;50.742;4.224;2023-06-14T08:18:06;23.80;95.90
20712;DHT22;10517;50.742;4.224;2023-06-14T08:20:31;24.00;97.00
20712;DHT22;10517;50.742;4.224;2023-06-14T08:22:57;24.10;96.50
20712;DHT22;10517;50.742;4.224;2023-06-14T08:25:23;24.10;95.60
20712;DHT22;10517;50.742;4.224;2023-06-14T08:27:49;24.20;95.60
20712;DHT22;10517;50.742;4.224;2023-06-14T08:30:15;24.10;95.30
20712;DHT22;10517;50.742;4.224;2023-06-14T08:32:42;24.00;94.50
20712;DHT22;10517;50.742;4.224;2023-06-14T08:35:08;24.20;95.50
20712;DHT22;10517;50.742;4.224;2023-06-14T08:37:38;24.40;94.70
20712;DHT22;10517;50.742;4.224;2023-06-14T08:40:19;24.70;96.10
20712;DHT22;10517;50.742;4.224;2023-06-14T08:42:48;24.50;93.40
20712;DHT22;10517;50.742;4.224;2023-06-14T08:45:15;24.70;94.40
20712;DHT22;10517;50.742;4.224;2023-06-14T08:47:41;24.80;93.50
20712;DHT22;10517;50.742;4.224;2023-06-14T08:50:07;24.80;92.60
20712;DHT22;10517;50.742;4.224;2023-06-14T08:52:38;24.90;92.40
20712;DHT22;10517;50.742;4.224;2023-06-14T08:55:11;25.00;91.50
20712;DHT22;10517;50.742;4.224;2023-06-14T08:57:37;25.00;93.20
20712;DHT22;10517;50.742;4.224;2023-06-14T09:00:04;25.20;92.60
20712;DHT22;10517;50.742;4.224;2023-06-14T09:02:39;25.10;90.80
20712;DHT22;10517;50.742;4.224;2023-06-14T09:05:09;25.30;92.40
20712;DHT22;10517;50.742;4.224;2023-06-14T09:07:37;25.60;91.80
20712;DHT22;10517;50.742;4.224;2023-06-14T09:10:11;25.80;91.20
20712;DHT22;10517;50.742;4.224;2023-06-14T09:12:37;25.80;90.60
20712;DHT22;10517;50.742;4.224;2023-06-14T09:15:05;25.80;86.60
20712;DHT22;10517;50.742;4.224;2023-06-14T09:17:49;25.70;87.00
20712;DHT22;10517;50.742;4.224;2023-06-14T09:20:15;25.80;88.90
20712;DHT22;10517;50.742;4.224;2023-06-14T09:22:44;25.70;84.50
20712;DHT22;10517;50.742;4.224;2023-06-14T09:25:10;25.80;88.10
20712;DHT22;10517;50.742;4.224;2023-06-14T09:27:37;25.90;84.30
20712;DHT22;10517;50.742;4.224;2023-06-14T09:30:05;26.00;84.60
20712;DHT22;10517;50.742;4.224;2023-06-14T09:32:39;25.90;84.90
20712;DHT22;10517;50.742;4.224;2023-06-14T09:35:09;25.80;86.10
20712;DHT22;10517;50.742;4.224;2023-06-14T09:37:35;25.90;89.00
20712;DHT22;10517;50.742;4.224;2023-06-14T09:40:03;26.10;84.80
20712;DHT22;10517;50.742;4.224;2023-06-14T09:42:29;26.40;88.40
20712;DHT22;10517;50.742;4.224;2023-06-14T09:44:56;26.40;87.20
20712;DHT22;10517;50.742;4.224;2023-06-14T09:47:23;26.40;85.60
20712;DHT22;10517;50.742;4.224;2023-06-14T09:49:50;26.40;86.30
20712;DHT22;10517;50.742;4.224;2023-06-14T09:52:18;26.40;87.20
20712;DHT22;10517;50.742;4.224;2023-06-14T09:54:45;26.20;84.90
20712;DHT22;10517;50.742;4.224;2023-06-14T09:57:16;26.10;88.20
20712;DHT22;10517;50.742;4.224;2023-06-14T09:59:46;26.30;87.60
20712;DHT22;10517;50.742;4.224;2023-06-14T10:02:17;26.30;85.90
20712;DHT22;10517;50.742;4.224;2023-06-14T10:04:46;26.40;84.50
20712;DHT22;10517;50.742;4.224;2023-06-14T10:09:46;26.40;83.00
20712;DHT22;10517;50.742;4.224;2023-06-14T10:12:16;26.40;83.20
20712;DHT22;10517;50.742;4.224;2023-06-14T10:14:48;26.20;84.20
20712;DHT22;10517;50.742;4.224;2023-06-14T10:18:19;26.50;82.40
20712;DHT22;10517;50.742;4.224;2023-06-14T10:20:30;26.50;82.80
20712;DHT22;10517;50.742;4.224;2023-06-14T10:23:21;26.70;80.80
20712;DHT22;10517;50.742;4.224;2023-06-14T10:25:50;27.00;84.70
20712;DHT22;10517;50.742;4.224;2023-06-14T10:28:20;27.20;85.80
20712;DHT22;10517;50.742;4.224;2023-06-14T10:31:08;27.50;83.90
20712;DHT22;10517;50.742;4.224;2023-06-14T10:33:52;27.20;81.60
20712;DHT22;10517;50.742;4.224;2023-06-14T10:36:30;26.90;82.30
20712;DHT22;10517;50.742;4.224;2023-06-14T10:41:27;26.90;82.50
20712;DHT22;10517;50.742;4.224;2023-06-14T10:46:39;26.80;85.10
20712;DHT22;10517;50.742;4.224;2023-06-14T10:49:06;26.90;79.70
20712;DHT22;10517;50.742;4.224;2023-06-14T10:51:42;26.70;83.10
20712;DHT22;10517;50.742;4.224;2023-06-14T10:54:15;26.90;83.00
20712;DHT22;10517;50.742;4.224;2023-06-14T10:56:51;27.00;81.10
20712;DHT22;10517;50.742;4.224;2023-06-14T10:59:18;27.00;81.40
20712;DHT22;10517;50.742;4.224;2023-06-14T11:02:13;27.30;86.50
20712;DHT22;10517;50.742;4.224;2023-06-14T11:04:51;27.90;83.40
20712;DHT22;10517;50.742;4.224;2023-06-14T11:07:48;27.90;81.00
20712;DHT22;10517;50.742;4.224;2023-06-14T11:10:40;27.90;81.30
20712;DHT22;10517;50.742;4.224;2023-06-14T11:13:07;27.90;80.90
20712;DHT22;10517;50.742;4.224;2023-06-14T11:15:37;28.00;79.20
20712;DHT22;10517;50.742;4.224;2023-06-14T11:18:05;28.30;85.30
20712;DHT22;10517;50.742;4.224;2023-06-14T11:20:33;28.20;80.30
20712;DHT22;10517;50.742;4.224;2023-06-14T11:22:59;28.40;80.20
20712;DHT22;10517;50.742;4.224;2023-06-14T11:25:25;28.70;78.10
20712;DHT22;10517;50.742;4.224;2023-06-14T11:27:52;28.90;78.30
20712;DHT22;10517;50.742;4.224;2023-06-14T11:30:18;28.90;76.20
20712;DHT22;10517;50.742;4.224;2023-06-14T11:32:51;29.00;74.40
20712;DHT22;10517;50.742;4.224;2023-06-14T11:35:17;29.30;77.50
20712;DHT22;10517;50.742;4.224;2023-06-14T11:37:43;28.90;76.50
20712;DHT22;10517;50.742;4.224;2023-06-14T11:40:11;29.00;78.10
20712;DHT22;10517;50.742;4.224;2023-06-14T11:42:38;28.90;73.70
20712;DHT22;10517;50.742;4.224;2023-06-14T11:45:07;29.10;74.80
20712;DHT22;10517;50.742;4.224;2023-06-14T11:47:33;29.30;74.80
20712;DHT22;10517;50.742;4.224;2023-06-14T11:50:00;29.60;73.40
20712;DHT22;10517;50.742;4.224;2023-06-14T11:52:25;30.00;72.90
20712;DHT22;10517;50.742;4.224;2023-06-14T11:54:52;30.10;74.50
20712;DHT22;10517;50.742;4.224;2023-06-14T11:57:18;30.20;74.80
20712;DHT22;10517;50.742;4.224;2023-06-14T11:59:44;30.00;72.50
20712;DHT22;10517;50.742;4.224;2023-06-14T12:02:21;29.90;72.90
20712;DHT22;10517;50.742;4.224;2023-06-14T12:04:47;30.00;73.00
20712;DHT22;10517;50.742;4.224;2023-06-14T12:07:17;30.20;70.90
20712;DHT22;10517;50.742;4.224;2023-06-14T12:12:21;30.60;75.10
20712;DHT22;10517;50.742;4.224;2023-06-14T12:14:47;30.50;71.20
20712;DHT22;10517;50.742;4.224;2023-06-14T12:17:13;30.70;70.80
20712;DHT22;10517;50.742;4.224;2023-06-14T12:19:43;30.40;67.50
20712;DHT22;10517;50.742;4.224;2023-06-14T12:22:13;30.60;71.70
20712;DHT22;10517;50.742;4.224;2023-06-14T12:24:39;30.80;70.60
20712;DHT22;10517;50.742;4.224;2023-06-14T12:27:08;30.90;71.50
20712;DHT22;10517;50.742;4.224;2023-06-14T12:29:33;31.00;70.30
20712;DHT22;10517;50.742;4.224;2023-06-14T12:31:59;30.40;72.40
20712;DHT22;10517;50.742;4.224;2023-06-14T12:34:25;30.60;70.90
20712;DHT22;10517;50.742;4.224;2023-06-14T12:36:55;30.80;71.00
20712;DHT22;10517;50.742;4.224;2023-06-14T12:39:21;31.00;69.10
20712;DHT22;10517;50.742;4.224;2023-06-14T12:41:47;30.90;69.80
20712;DHT22;10517;50.742;4.224;2023-06-14T12:44:14;30.70;69.50
20712;DHT22;10517;50.742;4.224;2023-06-14T12:46:41;30.80;71.10
20712;DHT22;10517;50.742;4.224;2023-06-14T12:49:09;30.90;71.50
20712;DHT22;10517;50.742;4.224;2023-06-14T12:51:35;30.90;68.70
20712;DHT22;10517;50.742;4.224;2023-06-14T12:54:01;31.10;68.70
20712;DHT22;10517;50.742;4.224;2023-06-14T12:56:26;31.00;67.00
20712;DHT22;10517;50.742;4.224;2023-06-14T12:58:52;30.90;65.90
20712;DHT22;10517;50.742;4.224;2023-06-14T13:01:18;31.60;70.50
20712;DHT22;10517;50.742;4.224;2023-06-14T13:03:44;32.00;67.40
20712;DHT22;10517;50.742;4.224;2023-06-14T13:06:10;32.50;64.30
20712;DHT22;10517;50.742;4.224;2023-06-14T13:08:36;32.80;66.60
20712;DHT22;10517;50.742;4.224;2023-06-14T13:11:02;33.30;64.00
20712;DHT22;10517;50.742;4.224;2023-06-14T13:13:27;34.80;63.70
20712;DHT22;10517;50.742;4.224;2023-06-14T13:15:53;36.40;61.90
20712;DHT22;10517;50.742;4.224;2023-06-14T13:18:18;36.40;60.90
20712;DHT22;10517;50.742;4.224;2023-06-14T13:20:45;36.30;57.90
20712;DHT22;10517;50.742;4.224;2023-06-14T13:23:11;35.60;56.10
20712;DHT22;10517;50.742;4.224;2023-06-14T13:25:38;35.70;58.20
20712;DHT22;10517;50.742;4.224;2023-06-14T13:28:04;37.20;54.30
20712;DHT22;10517;50.742;4.224;2023-06-14T13:30:30;38.60;55.80
20712;DHT22;10517;50.742;4.224;2023-06-14T13:32:57;39.60;55.40
20712;DHT22;10517;50.742;4.224;2023-06-14T13:35:23;39.90;53.70
20712;DHT22;10517;50.742;4.224;2023-06-14T13:37:48;38.60;50.00
20712;DHT22;10517;50.742;4.224;2023-06-14T13:40:14;38.70;50.80
20712;DHT22;10517;50.742;4.224;2023-06-14T13:42:40;39.40;52.60
20712;DHT22;10517;50.742;4.224;2023-06-14T13:45:06;39.50;50.70
20712;DHT22;10517;50.742;4.224;2023-06-14T13:47:32;39.00;48.20
20712;DHT22;10517;50.742;4.224;2023-06-14T13:49:58;38.80;48.40
20712;DHT22;10517;50.742;4.224;2023-06-14T13:52:24;39.00;50.20
20712;DHT22;10517;50.742;4.224;2023-06-14T13:54:49;39.80;48.40
20712;DHT22;10517;50.742;4.224;2023-06-14T13:57:16;40.00;48.90
20712;DHT22;10517;50.742;4.224;2023-06-14T13:59:42;40.80;47.50
20712;DHT22;10517;50.742;4.224;2023-06-14T14:02:10;41.50;46.70
20712;DHT22;10517;50.742;4.224;2023-06-14T14:04:35;40.90;46.90
20712;DHT22;10517;50.742;4.224;2023-06-14T14:07:02;41.60;47.30
20712;DHT22;10517;50.742;4.224;2023-06-14T14:09:28;41.70;46.70
20712;DHT22;10517;50.742;4.224;2023-06-14T14:11:54;41.70;44.80
20712;DHT22;10517;50.742;4.224;2023-06-14T14:14:19;38.70;45.10
20712;DHT22;10517;50.742;4.224;2023-06-14T14:16:45;38.10;46.60
20712;DHT22;10517;50.742;4.224;2023-06-14T14:19:11;38.50;46.20
20712;DHT22;10517;50.742;4.224;2023-06-14T14:21:37;38.90;48.10
20712;DHT22;10517;50.742;4.224;2023-06-14T14:24:03;38.20;45.00
20712;DHT22;10517;50.742;4.224;2023-06-14T14:26:29;37.80;44.60
20712;DHT22;10517;50.742;4.224;2023-06-14T14:28:54;37.30;45.60
20712;DHT22;10517;50.742;4.224;2023-06-14T14:31:20;37.90;45.70
20712;DHT22;10517;50.742;4.224;2023-06-14T14:33:46;39.90;44.40
20712;DHT22;10517;50.742;4.224;2023-06-14T14:36:11;39.50;43.20
20712;DHT22;10517;50.742;4.224;2023-06-14T14:38:37;38.60;44.20
20712;DHT22;10517;50.742;4.224;2023-06-14T14:41:02;38.40;44.10
20712;DHT22;10517;50.742;4.224;2023-06-14T14:43:28;38.90;45.00
20712;DHT22;10517;50.742;4.224;2023-06-14T14:45:56;39.20;44.10
20712;DHT22;10517;50.742;4.224;2023-06-14T14:48:22;39.70;42.30
20712;DHT22;10517;50.742;4.224;2023-06-14T14:50:48;39.00;42.60
20712;DHT22;10517;50.742;4.224;2023-06-14T14:53:14;39.00;42.20
20712;DHT22;10517;50.742;4.224;2023-06-14T14:55:42;38.20;42.20
20712;DHT22;10517;50.742;4.224;2023-06-14T14:58:08;38.50;42.10
20712;DHT22;10517;50.742;4.224;2023-06-14T15:00:34;38.90;41.70
20712;DHT22;10517;50.742;4.224;2023-06-14T15:03:00;38.30;42.60
20712;DHT22;10517;50.742;4.224;2023-06-14T15:05:26;39.20;42.40
20712;DHT22;10517;50.742;4.224;2023-06-14T15:07:51;38.80;42.70
20712;DHT22;10517;50.742;4.224;2023-06-14T15:10:17;39.20;41.00
20712;DHT22;10517;50.742;4.224;2023-06-14T15:12:42;39.00;41.60
20712;DHT22;10517;50.742;4.224;2023-06-14T15:15:08;39.50;42.20
20712;DHT22;10517;50.742;4.224;2023-06-14T15:17:35;39.70;42.50
20712;DHT22;10517;50.742;4.224;2023-06-14T15:20:01;39.50;41.70
20712;DHT22;10517;50.742;4.224;2023-06-14T15:22:26;40.70;42.50
20712;DHT22;10517;50.742;4.224;2023-06-14T15:24:52;41.90;41.40
20712;DHT22;10517;50.742;4.224;2023-06-14T15:27:18;42.10;39.10
20712;DHT22;10517;50.742;4.224;2023-06-14T15:29:44;42.00;39.60
20712;DHT22;10517;50.742;4.224;2023-06-14T15:32:10;41.00;39.30
20712;DHT22;10517;50.742;4.224;2023-06-14T15:34:36;41.40;40.60
20712;DHT22;10517;50.742;4.224;2023-06-14T15:37:05;41.70;39.60
20712;DHT22;10517;50.742;4.224;2023-06-14T15:39:31;42.40;40.50
20712;DHT22;10517;50.742;4.224;2023-06-14T15:41:57;41.80;37.30
20712;DHT22;10517;50.742;4.224;2023-06-14T15:44:23;41.80;38.70
20712;DHT22;10517;50.742;4.224;2023-06-14T15:46:49;41.30;38.20